createdAt,value
2018-11-22T00:01:55.220Z,76.80
2018-11-22T00:04:22.734Z,76.70
2018-11-22T00:06:50.207Z,76.80
2018-11-22T00:09:17.663Z,77.00
2018-11-22T00:11:45.144Z,77.00
2018-11-22T00:14:12.588Z,76.90
2018-11-22T00:16:40.073Z,76.90
2018-11-22T00:19:07.547Z,77.10
2018-11-22T00:21:34.996Z,77.20
2018-11-22T00:24:02.483Z,77.20
2018-11-22T00:26:29.929Z,77.30
2018-11-22T00:28:57.395Z,77.30
2018-11-22T00:31:24.882Z,77.30
2018-11-22T00:33:52.330Z,77.30
2018-11-22T00:36:19.783Z,77.30
2018-11-22T00:38:47.258Z,77.10
2018-11-22T00:41:14.700Z,77.50
2018-11-22T00:43:42.186Z,77.50
2018-11-22T00:46:09.648Z,77.40
2018-11-22T00:48:37.126Z,77.30
2018-11-22T00:51:04.919Z,77.40
2018-11-22T00:53:32.424Z,77.40
2018-11-22T00:55:59.861Z,77.50
2018-11-22T00:58:27.385Z,77.30
2018-11-22T01:00:54.847Z,77.20
2018-11-22T01:03:22.318Z,77.60
2018-11-22T01:05:49.776Z,77.60
2018-11-22T01:08:17.301Z,77.80
2018-11-22T01:10:44.756Z,77.80
2018-11-22T01:13:12.226Z,77.90
2018-11-22T01:15:39.685Z,78.10
2018-11-22T01:18:07.178Z,78.00
2018-11-22T01:20:34.627Z,78.10
2018-11-22T01:23:02.104Z,78.00
2018-11-22T01:25:29.579Z,78.00
2018-11-22T01:27:57.012Z,78.00
2018-11-22T01:30:24.491Z,78.10
2018-11-22T01:32:51.948Z,78.30
2018-11-22T01:35:19.435Z,78.40
2018-11-22T01:37:47.271Z,78.30
2018-11-22T01:40:14.358Z,78.20
2018-11-22T01:42:41.859Z,78.10
2018-11-22T01:45:09.452Z,78.20
2018-11-22T01:47:37.000Z,78.20
2018-11-22T01:50:06.270Z,78.30
2018-11-22T01:52:34.064Z,78.50
2018-11-22T01:55:01.559Z,78.40
2018-11-22T01:57:29.426Z,78.20
2018-11-22T01:59:56.880Z,78.20
2018-11-22T02:02:24.374Z,78.40
2018-11-22T02:04:51.847Z,78.60
2018-11-22T02:07:19.299Z,78.50
2018-11-22T02:09:46.792Z,78.50
2018-11-22T02:12:14.263Z,78.40
2018-11-22T02:14:41.762Z,78.50
2018-11-22T02:17:09.225Z,78.70
2018-11-22T02:19:36.662Z,78.40
2018-11-22T02:22:04.269Z,78.60
2018-11-22T02:24:31.723Z,78.60
2018-11-22T02:26:59.172Z,78.70
2018-11-22T02:29:26.627Z,79.00
2018-11-22T02:31:54.195Z,79.00
2018-11-22T02:34:22.011Z,79.00
2018-11-22T02:36:49.451Z,79.00
2018-11-22T02:39:16.889Z,79.00
2018-11-22T02:41:44.353Z,79.00
2018-11-22T02:44:11.789Z,79.00
2018-11-22T02:46:39.246Z,79.00
2018-11-22T02:49:06.763Z,79.00
2018-11-22T02:51:34.207Z,78.90
2018-11-22T02:54:01.639Z,79.00
2018-11-22T02:56:29.145Z,78.90
2018-11-22T02:58:56.593Z,78.40
2018-11-22T03:01:24.051Z,78.40
2018-11-22T03:03:51.474Z,79.00
2018-11-22T03:06:18.976Z,79.10
2018-11-22T03:08:46.429Z,79.00
2018-11-22T03:11:13.855Z,79.10
2018-11-22T03:13:41.313Z,79.40
2018-11-22T03:16:08.766Z,79.20
2018-11-22T03:18:36.244Z,79.40
2018-11-22T03:21:03.719Z,79.10
2018-11-22T03:23:31.158Z,79.00
2018-11-22T03:25:58.618Z,79.20
2018-11-22T03:28:26.072Z,79.20
2018-11-22T03:30:53.538Z,79.10
2018-11-22T03:33:21.026Z,79.00
2018-11-22T03:35:48.493Z,78.40
2018-11-22T03:38:15.956Z,78.90
2018-11-22T03:40:43.424Z,79.00
2018-11-22T03:43:10.904Z,79.10
2018-11-22T03:45:38.353Z,79.10
2018-11-22T03:48:05.852Z,79.10
2018-11-22T03:50:33.694Z,79.00
2018-11-22T03:53:01.149Z,79.00
2018-11-22T03:55:28.676Z,79.00
2018-11-22T03:57:56.133Z,79.20
2018-11-22T04:00:23.602Z,79.30
2018-11-22T04:02:51.063Z,79.30
2018-11-22T04:05:18.521Z,79.00
2018-11-22T04:07:45.971Z,79.20
2018-11-22T04:10:13.688Z,78.70
2018-11-22T04:12:41.205Z,78.90
2018-11-22T04:15:08.677Z,79.30
2018-11-22T04:17:36.173Z,79.00
2018-11-22T04:20:03.664Z,79.00
2018-11-22T04:22:31.162Z,79.30
2018-11-22T04:24:58.618Z,79.40
2018-11-22T04:27:26.055Z,79.30
2018-11-22T04:29:53.513Z,79.20
2018-11-22T04:32:20.942Z,79.40
2018-11-22T04:34:48.398Z,79.40
2018-11-22T04:37:15.832Z,79.20
2018-11-22T04:39:43.342Z,79.30
2018-11-22T04:42:10.917Z,79.40
2018-11-22T04:44:38.392Z,79.40
2018-11-22T04:47:05.851Z,79.20
2018-11-22T04:49:33.280Z,79.00
2018-11-22T04:52:00.876Z,79.10
2018-11-22T04:54:28.293Z,78.90
2018-11-22T04:56:55.727Z,78.80
2018-11-22T04:59:23.197Z,78.50
2018-11-22T05:01:50.661Z,78.40
2018-11-22T05:04:18.095Z,78.30
2018-11-22T05:06:45.545Z,78.20
2018-11-22T05:09:13.034Z,78.20
2018-11-22T05:11:40.494Z,78.10
2018-11-22T05:14:07.964Z,78.10
2018-11-22T05:16:35.406Z,78.20
2018-11-22T05:19:02.837Z,78.20
2018-11-22T05:21:30.293Z,77.90
2018-11-22T05:23:57.801Z,77.80
2018-11-22T05:26:25.322Z,77.80
2018-11-22T05:28:52.849Z,77.70
2018-11-22T05:31:20.265Z,77.90
2018-11-22T05:33:47.775Z,78.00
2018-11-22T05:36:15.237Z,77.90
2018-11-22T05:38:42.760Z,78.10
2018-11-22T05:41:10.195Z,78.30
2018-11-22T05:43:37.709Z,78.20
2018-11-22T05:46:05.229Z,78.10
2018-11-22T05:48:32.697Z,77.90
2018-11-22T05:51:00.165Z,77.90
2018-11-22T05:53:27.592Z,77.90
2018-11-22T05:55:55.059Z,78.00
2018-11-22T05:58:22.490Z,77.90
2018-11-22T06:00:49.951Z,77.70
2018-11-22T06:03:17.390Z,77.70
2018-11-22T06:05:44.835Z,78.00
2018-11-22T06:08:12.740Z,77.80
2018-11-22T06:10:40.584Z,77.70
2018-11-22T06:13:08.019Z,77.40
2018-11-22T06:15:35.489Z,77.50
2018-11-22T06:18:02.944Z,77.20
2018-11-22T06:20:30.408Z,77.20
2018-11-22T06:22:57.875Z,77.30
2018-11-22T06:25:25.343Z,77.40
2018-11-22T06:27:52.784Z,77.20
2018-11-22T06:30:20.616Z,77.80
2018-11-22T06:32:48.041Z,77.40
2018-11-22T06:35:15.492Z,77.70
2018-11-22T06:37:42.964Z,77.70
2018-11-22T06:40:10.873Z,77.70
2018-11-22T06:42:38.367Z,77.50
2018-11-22T12:16:20.799Z,68.00
2018-11-22T12:18:48.276Z,68.30
2018-11-22T12:21:15.769Z,68.60
2018-11-22T12:23:43.214Z,68.80
2018-11-22T12:26:10.838Z,68.90
2018-11-22T12:28:38.272Z,68.90
2018-11-22T12:31:06.633Z,69.00
2018-11-22T12:33:33.238Z,69.00
2018-11-22T12:36:00.715Z,68.80
2018-11-22T12:38:28.230Z,69.10
2018-11-22T12:40:55.785Z,68.90
2018-11-22T12:43:23.322Z,69.20
2018-11-22T12:45:51.368Z,68.50
2018-11-22T12:48:18.782Z,68.60
2018-11-22T12:50:46.261Z,68.90
2018-11-22T12:53:13.715Z,69.30
2018-11-22T12:55:41.165Z,69.20
2018-11-22T12:58:08.621Z,69.50
2018-11-22T13:00:36.103Z,69.60
2018-11-22T13:03:03.584Z,69.20
2018-11-22T13:05:31.031Z,69.60
2018-11-22T13:07:58.503Z,69.60
2018-11-22T13:10:25.958Z,70.10
2018-11-22T13:12:53.450Z,69.90
2018-11-22T13:15:20.966Z,69.50
2018-11-22T13:17:48.425Z,69.80
2018-11-22T13:20:15.893Z,69.80
2018-11-22T13:22:43.365Z,69.90
2018-11-22T13:25:11.034Z,69.80
2018-11-22T13:27:38.561Z,69.40
2018-11-22T13:30:09.780Z,69.60
2018-11-22T13:32:37.245Z,69.80
2018-11-22T13:35:06.166Z,69.30
2018-11-22T13:37:33.628Z,69.80
2018-11-22T13:40:01.113Z,70.50
2018-11-22T13:42:28.581Z,70.40
2018-11-22T13:44:56.274Z,70.40
2018-11-22T13:47:23.737Z,70.70
2018-11-22T13:49:51.170Z,71.10
2018-11-22T13:52:18.617Z,71.20
2018-11-22T13:54:46.079Z,71.10
2018-11-22T13:57:13.538Z,70.80
2018-11-22T13:59:41.199Z,70.80
2018-11-22T14:02:08.654Z,70.90
2018-11-22T14:04:36.111Z,70.70
2018-11-22T14:07:03.741Z,71.00
2018-11-22T14:09:31.197Z,71.40
2018-11-22T14:11:58.678Z,71.30
2018-11-22T14:14:26.129Z,71.50
2018-11-22T14:16:53.569Z,71.50
2018-11-22T14:19:21.081Z,71.30
2018-11-22T14:21:48.545Z,71.20
2018-11-22T14:24:16.031Z,71.30
2018-11-22T14:26:43.465Z,71.00
2018-11-22T14:29:11.773Z,70.80
2018-11-22T14:31:39.222Z,71.00
2018-11-22T14:34:06.669Z,71.10
2018-11-22T14:36:34.136Z,70.90
2018-11-22T14:39:01.610Z,70.50
2018-11-22T14:41:29.026Z,70.70
2018-11-22T14:43:56.502Z,70.70
2018-11-22T14:46:23.969Z,70.50
2018-11-22T14:48:51.405Z,70.60
2018-11-22T14:51:22.799Z,70.40
2018-11-22T14:53:50.258Z,70.50
2018-11-22T14:56:17.885Z,70.60
2018-11-22T14:58:45.345Z,70.80
2018-11-22T15:01:12.826Z,70.80
2018-11-22T15:03:40.296Z,70.90
2018-11-22T15:06:07.765Z,71.10
2018-11-22T15:08:35.256Z,71.10
2018-11-22T15:11:02.701Z,71.30
2018-11-22T15:13:30.302Z,71.50
2018-11-22T15:15:57.795Z,71.70
2018-11-22T15:18:25.219Z,72.00
2018-11-22T15:20:52.652Z,72.20
2018-11-22T15:23:20.121Z,72.60
2018-11-22T15:25:47.572Z,72.80
2018-11-22T15:28:15.103Z,72.70
2018-11-22T15:30:42.550Z,72.70
2018-11-22T15:33:10.012Z,72.80
2018-11-22T15:35:37.449Z,72.90
2018-11-22T15:38:05.094Z,73.30
2018-11-22T15:40:32.777Z,73.40
2018-11-22T15:43:00.224Z,73.40
2018-11-22T15:45:30.284Z,73.20
2018-11-22T15:47:55.227Z,73.30
2018-11-22T15:50:22.742Z,73.40
2018-11-22T15:52:50.210Z,74.00
2018-11-22T15:55:21.102Z,74.30
2018-11-22T15:57:45.145Z,74.00
2018-11-22T16:00:16.739Z,74.00
2018-11-22T16:02:44.211Z,74.10
2018-11-22T16:05:11.732Z,74.20
2018-11-22T16:07:39.291Z,74.30
2018-11-22T16:10:09.459Z,74.00
2018-11-22T16:12:36.915Z,74.20
2018-11-22T16:15:07.965Z,74.20
2018-11-22T16:17:35.445Z,74.50
2018-11-22T16:20:02.938Z,74.40
2018-11-22T16:22:30.419Z,74.90
2018-11-22T16:24:57.903Z,75.20
2018-11-22T16:27:25.341Z,75.30
2018-11-22T16:29:52.798Z,75.20
2018-11-22T16:32:20.277Z,75.20
2018-11-22T16:34:47.739Z,75.20
2018-11-22T16:37:15.234Z,74.80
2018-11-22T16:39:42.694Z,74.70
2018-11-22T16:42:10.150Z,74.70
2018-11-22T16:44:37.721Z,74.80
2018-11-22T16:47:05.237Z,74.80
2018-11-22T16:49:32.719Z,75.10
2018-11-22T16:52:00.154Z,75.10
2018-11-22T16:54:27.605Z,75.00
2018-11-22T16:56:55.108Z,75.20
2018-11-22T16:59:22.681Z,75.40
2018-11-22T17:01:50.153Z,75.50
2018-11-22T17:04:17.651Z,75.50
2018-11-22T17:06:45.177Z,75.60
2018-11-22T17:09:12.693Z,75.70
2018-11-22T17:11:40.194Z,75.70
2018-11-22T17:14:07.665Z,75.40
2018-11-22T17:16:35.146Z,75.20
2018-11-22T17:19:02.600Z,75.50
2018-11-22T17:21:30.030Z,75.60
2018-11-22T17:23:57.510Z,75.40
2018-11-22T17:26:25.353Z,75.50
2018-11-22T17:28:52.818Z,75.50
2018-11-22T17:31:20.272Z,75.80
2018-11-22T17:33:47.715Z,75.80
2018-11-22T17:36:15.190Z,75.40
2018-11-22T17:38:42.761Z,75.30
2018-11-22T17:41:10.245Z,76.10
2018-11-22T17:43:37.721Z,76.30
2018-11-22T17:46:05.793Z,75.80
2018-11-22T17:48:33.280Z,76.10
2018-11-22T17:51:01.010Z,76.10
2018-11-22T17:53:28.465Z,76.20
2018-11-22T17:55:55.917Z,76.40
2018-11-22T17:58:23.394Z,76.40
2018-11-22T18:00:50.850Z,76.10
2018-11-22T18:03:18.384Z,76.20
2018-11-22T18:05:46.064Z,76.70
2018-11-22T18:08:13.518Z,76.70
2018-11-22T18:10:41.019Z,77.00
2018-11-22T18:13:08.494Z,77.00
2018-11-22T18:15:35.973Z,77.10
2018-11-22T18:18:03.477Z,77.00
2018-11-22T18:20:31.000Z,77.30
2018-11-22T18:22:58.557Z,77.30
2018-11-22T18:25:26.043Z,77.20
2018-11-22T18:27:53.470Z,77.10
2018-11-22T18:30:20.989Z,77.10
2018-11-22T18:32:49.258Z,77.00
2018-11-22T18:35:15.929Z,77.20
2018-11-22T18:37:43.884Z,77.50
2018-11-22T18:40:12.493Z,77.70
2018-11-22T18:42:39.919Z,78.00
2018-11-22T18:45:09.730Z,78.00
2018-11-22T18:47:37.190Z,77.90
2018-11-22T18:50:15.484Z,77.80
2018-11-22T18:52:37.973Z,77.80
2018-11-22T18:55:05.689Z,77.70
2018-11-22T18:57:33.189Z,77.70
2018-11-22T19:00:00.666Z,78.10
2018-11-22T19:02:28.140Z,78.60
2018-11-22T19:04:55.568Z,78.20
2018-11-22T19:07:23.190Z,78.10
2018-11-22T19:09:50.617Z,78.20
2018-11-22T19:12:18.122Z,78.20
2018-11-22T19:14:45.610Z,78.50
2018-11-22T19:17:13.151Z,79.10
2018-11-22T19:19:40.630Z,79.60
2018-11-22T19:22:08.065Z,79.70
2018-11-22T19:24:35.513Z,79.90
2018-11-22T19:27:03.109Z,79.90
2018-11-22T19:29:30.626Z,79.90
2018-11-22T19:31:58.126Z,80.00
2018-11-22T19:34:25.577Z,79.70
2018-11-22T19:36:53.362Z,79.80
2018-11-22T19:39:20.898Z,80.00
2018-11-22T19:41:48.355Z,79.90
2018-11-22T19:44:15.861Z,80.00
2018-11-22T19:46:43.350Z,79.90
2018-11-22T19:49:10.806Z,79.90
2018-11-22T19:51:38.262Z,79.80
2018-11-22T19:54:05.693Z,80.20
2018-11-22T19:56:33.206Z,80.40
2018-11-22T19:59:00.689Z,80.50
2018-11-22T20:01:28.163Z,80.60
2018-11-22T20:03:55.602Z,80.70
2018-11-22T20:06:23.053Z,80.90
2018-11-22T20:08:50.543Z,80.90
2018-11-22T20:11:18.850Z,80.90
2018-11-22T20:13:46.320Z,80.80
2018-11-22T20:16:13.777Z,80.70
2018-11-22T20:18:41.221Z,80.80
2018-11-22T20:21:08.694Z,80.60
2018-11-22T20:23:36.729Z,80.60
2018-11-22T20:26:04.289Z,80.80
2018-11-22T20:28:31.949Z,80.70
2018-11-22T20:30:59.413Z,80.60
2018-11-22T20:33:26.890Z,80.80
2018-11-22T20:35:54.362Z,80.40
2018-11-22T20:38:21.915Z,80.60
2018-11-22T20:40:49.374Z,80.80
2018-11-22T20:43:16.829Z,80.80
2018-11-22T20:45:44.254Z,80.70
2018-11-22T20:48:11.755Z,80.80
2018-11-22T20:50:39.223Z,80.80
2018-11-22T20:53:06.745Z,80.90
2018-11-22T20:55:34.220Z,80.70
2018-11-22T20:58:01.710Z,81.20
2018-11-22T21:00:29.185Z,80.60
2018-11-22T21:02:56.623Z,81.00
2018-11-22T21:05:24.102Z,80.70
2018-11-22T21:07:51.582Z,80.20
2018-11-22T21:10:19.035Z,80.00
2018-11-22T21:12:46.627Z,79.70
2018-11-22T21:15:15.289Z,80.00
2018-11-22T21:17:42.786Z,80.80
2018-11-22T21:20:10.350Z,81.10
2018-11-22T21:22:37.843Z,80.90
2018-11-22T21:25:07.186Z,80.70
2018-11-22T21:27:34.660Z,80.00
2018-11-22T21:30:02.213Z,80.50
2018-11-22T21:32:29.662Z,80.30
2018-11-22T21:34:57.178Z,80.50
2018-11-22T21:37:24.651Z,80.20
2018-11-22T21:39:52.131Z,80.00
2018-11-22T21:42:19.630Z,79.70
2018-11-22T21:44:47.123Z,80.10
2018-11-22T21:47:14.606Z,81.10
2018-11-22T21:49:42.080Z,80.90
2018-11-22T21:52:09.526Z,81.40
2018-11-22T21:54:36.998Z,81.50
2018-11-22T21:57:04.749Z,81.00
2018-11-22T21:59:32.245Z,80.60
2018-11-22T22:01:59.745Z,80.30
2018-11-22T22:04:27.163Z,80.90
2018-11-22T22:06:54.634Z,81.90
2018-11-22T22:09:22.115Z,82.50
2018-11-22T22:11:49.569Z,82.40
2018-11-22T22:14:17.025Z,82.40
2018-11-22T22:16:44.485Z,82.30
2018-11-22T22:19:11.933Z,82.30
2018-11-22T22:21:39.381Z,82.60
2018-11-22T22:24:06.835Z,82.60
2018-11-22T22:26:34.337Z,82.40
2018-11-22T22:29:01.909Z,82.10
2018-11-22T22:31:29.361Z,80.80
2018-11-22T22:33:56.829Z,80.70
2018-11-22T22:36:24.287Z,81.00
2018-11-22T22:38:51.775Z,81.10
2018-11-22T22:41:19.236Z,81.20
2018-11-22T22:43:46.751Z,81.90
2018-11-22T22:46:14.275Z,81.90
2018-11-22T22:48:41.733Z,80.80
2018-11-22T22:51:09.276Z,81.30
2018-11-22T22:53:36.733Z,81.30
2018-11-22T22:56:04.318Z,81.20
2018-11-22T22:58:31.811Z,81.80
2018-11-22T23:00:59.257Z,82.50
2018-11-22T23:03:26.721Z,83.00
2018-11-22T23:05:54.170Z,82.90
2018-11-22T23:08:21.608Z,83.10
2018-11-22T23:10:49.110Z,83.10
2018-11-22T23:13:16.546Z,83.30
2018-11-22T23:15:44.001Z,82.90
2018-11-22T23:18:11.572Z,82.70
2018-11-22T23:20:39.036Z,82.50
2018-11-22T23:23:06.490Z,82.10
2018-11-22T23:25:33.921Z,81.90
2018-11-22T23:28:01.341Z,81.80
2018-11-22T23:30:28.819Z,81.50
2018-11-22T23:32:56.521Z,81.60
2018-11-22T23:35:23.771Z,82.00
2018-11-22T23:37:51.246Z,81.70
2018-11-22T23:40:18.716Z,81.20
2018-11-22T23:42:46.161Z,80.90
2018-11-22T23:45:13.706Z,81.60
2018-11-22T23:47:41.173Z,81.80
2018-11-22T23:50:09.809Z,82.00
2018-11-22T23:52:37.236Z,82.40
2018-11-22T23:55:04.738Z,82.40
2018-11-22T23:57:32.174Z,82.50
2018-11-22T23:59:59.634Z,82.40
